createdAt,value
2022-08-17T00:00:40.303Z,99.90
2022-08-17T00:05:52.137Z,99.90
2022-08-17T00:10:55.452Z,99.90
2022-08-17T00:16:00.728Z,99.90
2022-08-17T00:21:10.388Z,99.90
2022-08-17T00:26:14.475Z,99.90
2022-08-17T00:31:17.296Z,99.90
2022-08-17T00:36:20.370Z,99.90
2022-08-17T00:41:25.132Z,99.90
2022-08-17T00:46:39.347Z,99.90
2022-08-17T00:51:59.232Z,99.90
2022-08-17T00:57:07.234Z,99.90
2022-08-17T01:02:14.265Z,99.90
2022-08-17T01:07:17.499Z,99.90
2022-08-17T01:12:20.028Z,99.90
2022-08-17T01:17:22.446Z,99.90
2022-08-17T01:22:25.674Z,99.90
2022-08-17T01:27:29.526Z,99.90
2022-08-17T01:32:32.189Z,99.90
2022-08-17T01:37:38.273Z,99.90
2022-08-17T01:42:49.768Z,99.90
2022-08-17T01:47:53.954Z,99.90
2022-08-17T01:53:04.578Z,99.90
2022-08-17T01:58:09.763Z,99.90
2022-08-17T02:03:13.675Z,99.90
2022-08-17T02:08:19.852Z,99.90
2022-08-17T02:13:22.686Z,99.90
2022-08-17T02:18:25.854Z,99.90
2022-08-17T02:23:32.166Z,99.90
2022-08-17T02:28:35.018Z,99.90
2022-08-17T02:33:42.793Z,99.90
2022-08-17T02:38:46.060Z,99.90
2022-08-17T02:43:48.483Z,99.90
2022-08-17T02:48:50.919Z,99.90
2022-08-17T02:53:53.415Z,99.90
2022-08-17T02:59:15.792Z,99.90
2022-08-17T03:04:18.495Z,99.90
2022-08-17T03:09:20.936Z,99.90
2022-08-17T03:14:26.222Z,99.90
2022-08-17T03:19:28.876Z,99.90
2022-08-17T03:24:31.472Z,99.90
2022-08-17T03:29:33.915Z,99.90
2022-08-17T03:34:36.289Z,99.90
2022-08-17T03:39:39.029Z,99.90
2022-08-17T03:44:41.469Z,99.90
2022-08-17T03:50:02.705Z,99.90
2022-08-17T03:55:36.126Z,99.90
2022-08-17T04:00:39.773Z,99.90
2022-08-17T04:05:42.732Z,99.90
2022-08-17T04:10:45.480Z,99.90
2022-08-17T04:15:49.328Z,99.90
2022-08-17T04:20:51.843Z,99.90
2022-08-17T04:25:54.298Z,99.90
2022-08-17T04:30:57.340Z,99.90
2022-08-17T04:36:02.536Z,99.90
2022-08-17T04:41:25.387Z,99.90
2022-08-17T04:46:37.515Z,99.90
2022-08-17T04:51:47.927Z,99.90
2022-08-17T04:56:58.767Z,99.90
2022-08-17T05:02:01.218Z,99.90
2022-08-17T05:07:04.988Z,99.90
2022-08-17T05:12:07.858Z,99.90
2022-08-17T05:17:11.093Z,99.90
2022-08-17T05:22:14.669Z,99.90
2022-08-17T05:27:19.057Z,99.90
2022-08-17T05:32:48.324Z,99.90
2022-08-17T05:37:46.588Z,99.90
2022-08-17T05:42:50.284Z,99.90
2022-08-17T05:47:52.896Z,99.90
2022-08-17T05:53:08.289Z,99.90
2022-08-17T05:58:19.781Z,99.90
2022-08-17T06:03:59.521Z,99.90
2022-08-17T06:09:27.666Z,99.90
2022-08-17T06:14:59.675Z,99.90
2022-08-17T06:20:15.449Z,99.90
2022-08-17T06:25:34.849Z,99.90
2022-08-17T06:31:07.913Z,99.90
2022-08-17T06:36:31.629Z,99.90
2022-08-17T06:41:53.096Z,99.90
2022-08-17T06:47:12.528Z,99.90
2022-08-17T06:52:47.194Z,99.90
2022-08-17T06:58:05.845Z,99.90
2022-08-17T07:03:37.877Z,99.90
2022-08-17T07:08:57.902Z,99.90
2022-08-17T07:14:15.187Z,99.90
2022-08-17T07:19:23.667Z,99.90
2022-08-17T07:24:58.489Z,99.90
2022-08-17T07:30:10.276Z,99.90
2022-08-17T07:35:20.018Z,99.90
2022-08-17T07:40:33.838Z,99.90
2022-08-17T07:46:07.300Z,99.90
2022-08-17T07:51:27.058Z,99.90
2022-08-17T07:56:41.831Z,99.90
2022-08-17T08:02:17.110Z,99.90
2022-08-17T08:07:21.053Z,99.90
2022-08-17T08:12:47.246Z,99.90
2022-08-17T08:17:58.640Z,99.90
2022-08-17T08:23:05.668Z,99.90
2022-08-17T08:28:21.510Z,99.50
2022-08-17T08:33:35.096Z,99.70
2022-08-17T08:38:48.057Z,98.70
2022-08-17T08:44:18.480Z,97.50
2022-08-17T08:50:02.599Z,97.30
2022-08-17T08:55:13.502Z,94.30
2022-08-17T09:00:21.842Z,96.80
2022-08-17T09:05:58.155Z,94.40
2022-08-17T09:11:03.933Z,91.50
2022-08-17T09:16:36.541Z,94.30
2022-08-17T09:21:47.682Z,91.90
2022-08-17T09:27:04.082Z,92.30
2022-08-17T09:32:35.884Z,85.10
2022-08-17T09:37:54.086Z,85.90
2022-08-17T09:42:59.812Z,82.30
2022-08-17T09:48:25.022Z,80.20
2022-08-17T09:53:31.999Z,76.40
2022-08-17T09:59:17.238Z,70.90
2022-08-17T10:04:29.969Z,70.00
2022-08-17T10:09:50.592Z,69.70
2022-08-17T10:15:09.623Z,70.90
2022-08-17T10:20:20.592Z,66.30
2022-08-17T10:25:59.771Z,62.50
2022-08-17T10:31:33.011Z,63.60
2022-08-17T10:37:02.557Z,66.60
2022-08-17T10:42:30.783Z,68.10
2022-08-17T10:48:04.340Z,63.50
2022-08-17T10:53:07.523Z,62.40
2022-08-17T10:58:22.100Z,62.90
2022-08-17T11:03:26.399Z,58.40
2022-08-17T11:09:08.884Z,60.20
2022-08-17T11:14:24.014Z,55.20
2022-08-17T11:19:51.032Z,54.20
2022-08-17T11:24:54.731Z,61.50
2022-08-17T11:30:04.471Z,59.70
2022-08-17T11:35:22.023Z,59.40
2022-08-17T11:40:52.617Z,57.70
2022-08-17T11:46:10.233Z,58.60
2022-08-17T11:51:27.653Z,56.20
2022-08-17T11:56:42.943Z,58.30
2022-08-17T12:01:56.785Z,57.60
2022-08-17T12:07:08.758Z,57.30
2022-08-17T12:12:19.346Z,57.50
2022-08-17T12:17:40.939Z,57.80
2022-08-17T12:23:12.080Z,54.70
2022-08-17T12:28:28.006Z,56.40
2022-08-17T12:33:30.906Z,54.40
2022-08-17T12:38:36.275Z,54.60
2022-08-17T12:43:38.785Z,51.70
2022-08-17T12:48:58.826Z,49.50
2022-08-17T12:54:02.803Z,51.00
2022-08-17T12:59:07.200Z,49.20
2022-08-17T13:04:14.229Z,49.00
2022-08-17T13:09:35.972Z,41.80
2022-08-17T13:14:46.234Z,42.10
2022-08-17T13:19:50.688Z,42.50
2022-08-17T13:24:58.009Z,42.70
2022-08-17T13:30:07.480Z,39.30
2022-08-17T13:35:39.603Z,38.80
2022-08-17T13:40:49.993Z,34.60
2022-08-17T13:45:52.964Z,33.90
2022-08-17T13:50:55.403Z,33.30
2022-08-17T13:56:33.436Z,31.30
2022-08-17T14:01:44.132Z,31.40
2022-08-17T14:06:53.967Z,31.40
2022-08-17T14:11:58.114Z,29.50
2022-08-17T14:17:00.584Z,29.60
2022-08-17T14:22:04.979Z,29.30
2022-08-17T14:27:12.184Z,29.20
2022-08-17T14:32:36.162Z,32.20
2022-08-17T14:37:39.237Z,35.10
2022-08-17T14:42:44.135Z,31.70
2022-08-17T14:47:48.685Z,29.00
2022-08-17T14:52:51.254Z,28.90
2022-08-17T14:57:53.802Z,28.60
2022-08-17T15:02:58.829Z,29.80
2022-08-17T15:08:02.729Z,33.00
2022-08-17T15:13:14.596Z,36.40
2022-08-17T15:18:17.655Z,39.00
2022-08-17T15:23:22.244Z,40.70
2022-08-17T15:28:25.358Z,39.60
2022-08-17T15:33:30.254Z,41.00
2022-08-17T15:38:39.703Z,41.50
2022-08-17T15:43:43.709Z,42.30
2022-08-17T15:48:50.051Z,42.10
2022-08-17T15:54:00.302Z,41.70
2022-08-17T15:59:07.067Z,39.20
2022-08-17T16:04:26.820Z,41.00
2022-08-17T16:09:33.671Z,43.80
2022-08-17T16:14:36.450Z,46.60
2022-08-17T16:19:40.200Z,47.90
2022-08-17T16:24:56.940Z,47.90
2022-08-17T16:30:00.463Z,48.80
2022-08-17T16:35:05.335Z,50.30
2022-08-17T16:40:08.601Z,50.40
2022-08-17T16:45:16.959Z,51.10
2022-08-17T16:50:22.097Z,51.30
2022-08-17T16:55:24.554Z,52.50
2022-08-17T17:00:26.985Z,54.60
2022-08-17T17:05:57.771Z,56.30
2022-08-17T17:11:15.151Z,56.40
2022-08-17T17:16:24.029Z,56.60
2022-08-17T17:21:35.711Z,59.10
2022-08-17T17:27:07.403Z,60.60
2022-08-17T17:32:21.552Z,60.60
2022-08-17T17:37:29.070Z,64.20
2022-08-17T17:42:33.032Z,66.50
2022-08-17T17:47:36.419Z,70.30
2022-08-17T17:53:08.899Z,71.10
2022-08-17T17:58:37.497Z,69.20
2022-08-17T18:04:01.648Z,69.70
2022-08-17T18:09:34.164Z,72.10
2022-08-17T18:14:41.223Z,76.30
2022-08-17T18:19:45.256Z,77.90
2022-08-17T18:24:56.194Z,78.30
2022-08-17T18:30:07.110Z,75.80
2022-08-17T18:35:11.541Z,76.90
2022-08-17T18:40:16.798Z,79.90
2022-08-17T18:45:42.403Z,82.10
2022-08-17T18:50:45.792Z,80.50
2022-08-17T18:55:48.393Z,81.80
2022-08-17T19:00:51.537Z,79.90
2022-08-17T19:06:22.052Z,82.30
2022-08-17T19:11:30.118Z,83.70
2022-08-17T19:16:43.828Z,83.90
2022-08-17T19:22:00.095Z,83.70
2022-08-17T19:27:18.568Z,83.70
2022-08-17T19:32:27.885Z,84.50
2022-08-17T19:37:51.849Z,84.80
2022-08-17T19:43:27.636Z,84.30
2022-08-17T19:48:41.838Z,84.00
2022-08-17T19:54:04.992Z,85.50
2022-08-17T19:59:12.184Z,86.70
2022-08-17T20:04:32.389Z,87.00
2022-08-17T20:09:40.876Z,87.80
2022-08-17T20:15:04.520Z,88.10
2022-08-17T20:20:20.239Z,88.00
2022-08-17T20:25:31.046Z,87.60
2022-08-17T20:30:41.438Z,88.30
2022-08-17T20:36:15.569Z,89.30
2022-08-17T20:41:26.736Z,90.20
2022-08-17T20:46:38.566Z,90.70
2022-08-17T20:52:00.439Z,90.50
2022-08-17T20:57:06.210Z,90.40
2022-08-17T21:02:21.829Z,90.40
2022-08-17T21:07:54.070Z,91.10
2022-08-17T21:13:10.248Z,90.70
2022-08-17T21:18:38.679Z,91.50
2022-08-17T21:24:00.098Z,91.30
2022-08-17T21:29:32.562Z,92.00
2022-08-17T21:35:12.419Z,92.20
2022-08-17T21:40:18.481Z,92.00
2022-08-17T21:45:27.496Z,91.70
2022-08-17T21:50:30.060Z,91.20
2022-08-17T21:55:36.018Z,91.00
2022-08-17T22:00:38.638Z,91.20
2022-08-17T22:05:41.137Z,91.80
2022-08-17T22:10:45.456Z,91.60
2022-08-17T22:16:27.955Z,92.50
2022-08-17T22:21:32.163Z,92.30
2022-08-17T22:26:58.086Z,93.40
2022-08-17T22:32:00.535Z,93.20
2022-08-17T22:37:29.140Z,93.40
2022-08-17T22:42:32.261Z,93.70
2022-08-17T22:47:40.999Z,93.80
2022-08-17T22:53:03.501Z,94.00
2022-08-17T22:58:37.146Z,93.80
2022-08-17T23:03:53.959Z,94.30
2022-08-17T23:08:57.668Z,94.70
2022-08-17T23:14:00.154Z,95.00
2022-08-17T23:19:02.605Z,94.70
2022-08-17T23:24:07.569Z,94.80
2022-08-17T23:29:10.072Z,95.10
2022-08-17T23:34:14.680Z,95.40
2022-08-17T23:39:27.350Z,96.00
2022-08-17T23:44:31.104Z,96.10
2022-08-17T23:49:34.811Z,96.40
2022-08-17T23:54:44.573Z,96.10
2022-08-17T23:59:47.349Z,96.60
